sensor_id;sensor_type;location;lat;lon;timestamp;temperature;humidity
16392;DHT22;8305;-33.882;151.134;2023-09-07T00:00:14;18.00;99.90
16392;DHT22;8305;-33.882;151.134;2023-09-07T00:02:45;18.20;99.90
16392;DHT22;8305;-33.882;151.134;2023-09-07T00:05:16;18.30;99.90
16392;DHT22;8305;-33.882;151.134;2023-09-07T00:07:47;18.40;99.90
16392;DHT22;8305;-33.882;151.134;2023-09-07T00:10:18;18.40;99.90
16392;DHT22;8305;-33.882;151.134;2023-09-07T00:12:51;18.60;99.90
16392;DHT22;8305;-33.882;151.134;2023-09-07T00:15:22;18.70;99.90
16392;DHT22;8305;-33.882;151.134;2023-09-07T00:17:54;18.80;99.90
16392;DHT22;8305;-33.882;151.134;2023-09-07T00:20:24;18.90;99.90
16392;DHT22;8305;-33.882;151.134;2023-09-07T00:22:55;18.90;99.90
16392;DHT22;8305;-33.882;151.134;2023-09-07T00:25:26;18.80;99.90
16392;DHT22;8305;-33.882;151.134;2023-09-07T00:27:59;18.90;99.90
16392;DHT22;8305;-33.882;151.134;2023-09-07T00:30:30;19.00;99.90
16392;DHT22;8305;-33.882;151.134;2023-09-07T00:33:00;19.10;99.90
16392;DHT22;8305;-33.882;151.134;2023-09-07T00:35:31;19.40;99.90
16392;DHT22;8305;-33.882;151.134;2023-09-07T00:38:02;19.70;99.90
16392;DHT22;8305;-33.882;151.134;2023-09-07T00:40:33;19.90;99.90
16392;DHT22;8305;-33.882;151.134;2023-09-07T00:43:07;20.10;99.90
16392;DHT22;8305;-33.882;151.134;2023-09-07T00:45:38;20.30;99.90
16392;DHT22;8305;-33.882;151.134;2023-09-07T00:48:09;20.50;99.90
16392;DHT22;8305;-33.882;151.134;2023-09-07T00:50:42;20.70;99.90
16392;DHT22;8305;-33.882;151.134;2023-09-07T00:53:13;20.90;99.90
16392;DHT22;8305;-33.882;151.134;2023-09-07T00:55:45;21.00;99.90
16392;DHT22;8305;-33.882;151.134;2023-09-07T00:58:18;21.20;99.90
16392;DHT22;8305;-33.882;151.134;2023-09-07T01:00:49;21.40;99.90
16392;DHT22;8305;-33.882;151.134;2023-09-07T01:03:20;21.50;99.90
16392;DHT22;8305;-33.882;151.134;2023-09-07T01:05:56;21.60;99.90
16392;DHT22;8305;-33.882;151.134;2023-09-07T01:08:35;21.90;99.90
16392;DHT22;8305;-33.882;151.134;2023-09-07T01:11:14;22.00;99.90
16392;DHT22;8305;-33.882;151.134;2023-09-07T01:13:47;22.20;99.90
16392;DHT22;8305;-33.882;151.134;2023-09-07T01:16:17;22.50;99.90
16392;DHT22;8305;-33.882;151.134;2023-09-07T01:18:51;22.70;99.90
16392;DHT22;8305;-33.882;151.134;2023-09-07T01:21:23;22.80;99.90
16392;DHT22;8305;-33.882;151.134;2023-09-07T01:23:57;22.90;99.90
16392;DHT22;8305;-33.882;151.134;2023-09-07T01:26:28;23.00;99.90
16392;DHT22;8305;-33.882;151.134;2023-09-07T01:28:59;23.00;99.90
16392;DHT22;8305;-33.882;151.134;2023-09-07T01:31:29;23.00;99.90
16392;DHT22;8305;-33.882;151.134;2023-09-07T01:34:00;23.10;99.90
16392;DHT22;8305;-33.882;151.134;2023-09-07T01:36:31;23.30;99.90
16392;DHT22;8305;-33.882;151.134;2023-09-07T01:39:06;23.40;99.90
16392;DHT22;8305;-33.882;151.134;2023-09-07T01:41:37;23.40;99.90
16392;DHT22;8305;-33.882;151.134;2023-09-07T01:44:07;23.30;99.90
16392;DHT22;8305;-33.882;151.134;2023-09-07T01:46:38;23.40;99.90
16392;DHT22;8305;-33.882;151.134;2023-09-07T01:49:09;23.50;99.90
16392;DHT22;8305;-33.882;151.134;2023-09-07T01:51:40;23.60;99.90
16392;DHT22;8305;-33.882;151.134;2023-09-07T01:54:12;23.80;99.90
16392;DHT22;8305;-33.882;151.134;2023-09-07T01:56:44;23.80;99.90
16392;DHT22;8305;-33.882;151.134;2023-09-07T01:59:15;23.80;99.90
16392;DHT22;8305;-33.882;151.134;2023-09-07T02:01:45;23.90;99.90
16392;DHT22;8305;-33.882;151.134;2023-09-07T02:04:16;23.90;99.90
16392;DHT22;8305;-33.882;151.134;2023-09-07T02:06:47;23.90;99.90
16392;DHT22;8305;-33.882;151.134;2023-09-07T02:09:19;23.80;99.90
16392;DHT22;8305;-33.882;151.134;2023-09-07T02:11:50;23.70;99.90
16392;DHT22;8305;-33.882;151.134;2023-09-07T02:14:21;23.70;99.90
16392;DHT22;8305;-33.882;151.134;2023-09-07T02:16:52;23.40;99.90
16392;DHT22;8305;-33.882;151.134;2023-09-07T02:19:22;23.20;99.90
16392;DHT22;8305;-33.882;151.134;2023-09-07T02:21:53;23.20;99.90
16392;DHT22;8305;-33.882;151.134;2023-09-07T02:24:28;23.10;99.90
16392;DHT22;8305;-33.882;151.134;2023-09-07T02:26:59;23.20;99.90
16392;DHT22;8305;-33.882;151.134;2023-09-07T02:29:30;23.30;99.90
16392;DHT22;8305;-33.882;151.134;2023-09-07T02:32:00;23.30;99.90
16392;DHT22;8305;-33.882;151.134;2023-09-07T02:34:31;23.30;99.90
16392;DHT22;8305;-33.882;151.134;2023-09-07T02:37:04;23.40;99.90
16392;DHT22;8305;-33.882;151.134;2023-09-07T02:39:36;23.60;99.90
16392;DHT22;8305;-33.882;151.134;2023-09-07T02:42:07;23.60;99.90
16392;DHT22;8305;-33.882;151.134;2023-09-07T02:44:38;23.50;99.90
16392;DHT22;8305;-33.882;151.134;2023-09-07T02:47:09;23.50;99.90
16392;DHT22;8305;-33.882;151.134;2023-09-07T02:49:40;23.40;99.90
16392;DHT22;8305;-33.882;151.134;2023-09-07T02:52:10;23.40;99.90
16392;DHT22;8305;-33.882;151.134;2023-09-07T02:54:43;23.50;99.90
16392;DHT22;8305;-33.882;151.134;2023-09-07T02:57:14;23.50;99.90
16392;DHT22;8305;-33.882;151.134;2023-09-07T02:59:44;23.60;99.90
16392;DHT22;8305;-33.882;151.134;2023-09-07T03:02:15;23.60;99.90
16392;DHT22;8305;-33.882;151.134;2023-09-07T03:04:46;23.60;99.90
16392;DHT22;8305;-33.882;151.134;2023-09-07T03:07:16;23.60;99.90
16392;DHT22;8305;-33.882;151.134;2023-09-07T03:09:51;23.60;99.90
16392;DHT22;8305;-33.882;151.134;2023-09-07T03:12:21;23.70;99.90
16392;DHT22;8305;-33.882;151.134;2023-09-07T03:14:52;23.70;99.90
16392;DHT22;8305;-33.882;151.134;2023-09-07T03:17:23;23.80;99.90
16392;DHT22;8305;-33.882;151.134;2023-09-07T03:19:54;23.70;99.90
16392;DHT22;8305;-33.882;151.134;2023-09-07T03:22:24;23.60;99.90
16392;DHT22;8305;-33.882;151.134;2023-09-07T03:24:59;23.60;99.90
16392;DHT22;8305;-33.882;151.134;2023-09-07T03:27:29;23.60;99.90
16392;DHT22;8305;-33.882;151.134;2023-09-07T03:30:00;23.50;99.90
16392;DHT22;8305;-33.882;151.134;2023-09-07T03:32:33;23.30;99.90
16392;DHT22;8305;-33.882;151.134;2023-09-07T03:35:05;23.10;99.90
16392;DHT22;8305;-33.882;151.134;2023-09-07T03:37:38;23.10;99.90
16392;DHT22;8305;-33.882;151.134;2023-09-07T03:40:11;23.00;99.90
16392;DHT22;8305;-33.882;151.134;2023-09-07T03:42:42;23.10;99.90
16392;DHT22;8305;-33.882;151.134;2023-09-07T03:45:14;23.10;99.90
16392;DHT22;8305;-33.882;151.134;2023-09-07T03:47:45;23.10;99.90
16392;DHT22;8305;-33.882;151.134;2023-09-07T03:50:15;23.20;99.90
16392;DHT22;8305;-33.882;151.134;2023-09-07T03:52:46;23.30;99.90
16392;DHT22;8305;-33.882;151.134;2023-09-07T03:55:19;23.40;99.90
16392;DHT22;8305;-33.882;151.134;2023-09-07T03:57:49;23.40;99.90
16392;DHT22;8305;-33.882;151.134;2023-09-07T04:00:20;23.40;99.90
16392;DHT22;8305;-33.882;151.134;2023-09-07T04:02:51;23.40;99.90
16392;DHT22;8305;-33.882;151.134;2023-09-07T04:05:23;23.40;99.90
16392;DHT22;8305;-33.882;151.134;2023-09-07T04:07:54;23.50;99.90
16392;DHT22;8305;-33.882;151.134;2023-09-07T04:10:26;23.50;99.90
16392;DHT22;8305;-33.882;151.134;2023-09-07T04:12:57;23.40;99.90
16392;DHT22;8305;-33.882;151.134;2023-09-07T04:15:28;23.40;99.90
16392;DHT22;8305;-33.882;151.134;2023-09-07T04:17:59;23.40;99.90
16392;DHT22;8305;-33.882;151.134;2023-09-07T04:20:30;23.40;99.90
16392;DHT22;8305;-33.882;151.134;2023-09-07T04:23:01;23.40;99.90
16392;DHT22;8305;-33.882;151.134;2023-09-07T04:25:34;23.40;99.90
16392;DHT22;8305;-33.882;151.134;2023-09-07T04:28:06;23.50;99.90
16392;DHT22;8305;-33.882;151.134;2023-09-07T04:30:39;23.50;99.90
16392;DHT22;8305;-33.882;151.134;2023-09-07T04:33:10;23.40;99.90
16392;DHT22;8305;-33.882;151.134;2023-09-07T04:35:40;23.40;99.90
16392;DHT22;8305;-33.882;151.134;2023-09-07T04:38:11;23.40;99.90
16392;DHT22;8305;-33.882;151.134;2023-09-07T04:40:44;23.40;99.90
16392;DHT22;8305;-33.882;151.134;2023-09-07T04:43:15;23.40;99.90
16392;DHT22;8305;-33.882;151.134;2023-09-07T04:45:48;23.50;99.90
16392;DHT22;8305;-33.882;151.134;2023-09-07T04:48:19;23.40;99.90
16392;DHT22;8305;-33.882;151.134;2023-09-07T04:50:50;23.40;99.90
16392;DHT22;8305;-33.882;151.134;2023-09-07T04:53:29;23.50;99.90
16392;DHT22;8305;-33.882;151.134;2023-09-07T04:56:02;23.50;99.90
16392;DHT22;8305;-33.882;151.134;2023-09-07T04:58:33;23.60;99.90
16392;DHT22;8305;-33.882;151.134;2023-09-07T05:01:04;23.60;99.90
16392;DHT22;8305;-33.882;151.134;2023-09-07T05:03:36;23.70;99.90
16392;DHT22;8305;-33.882;151.134;2023-09-07T05:06:07;23.70;99.90
16392;DHT22;8305;-33.882;151.134;2023-09-07T05:08:38;23.60;99.90
16392;DHT22;8305;-33.882;151.134;2023-09-07T05:11:11;23.50;99.90
16392;DHT22;8305;-33.882;151.134;2023-09-07T05:13:42;23.40;99.90
16392;DHT22;8305;-33.882;151.134;2023-09-07T05:16:12;23.30;99.90
16392;DHT22;8305;-33.882;151.134;2023-09-07T05:18:43;23.30;99.90
16392;DHT22;8305;-33.882;151.134;2023-09-07T05:21:14;23.30;99.90
16392;DHT22;8305;-33.882;151.134;2023-09-07T05:23:46;23.10;99.90
16392;DHT22;8305;-33.882;151.134;2023-09-07T05:26:22;23.00;99.90
16392;DHT22;8305;-33.882;151.134;2023-09-07T05:28:53;23.00;99.90
16392;DHT22;8305;-33.882;151.134;2023-09-07T05:31:24;23.00;99.90
16392;DHT22;8305;-33.882;151.134;2023-09-07T05:33:54;23.00;99.90
16392;DHT22;8305;-33.882;151.134;2023-09-07T05:36:25;23.10;99.90
16392;DHT22;8305;-33.882;151.134;2023-09-07T05:38:56;23.00;99.90
16392;DHT22;8305;-33.882;151.134;2023-09-07T05:41:28;23.10;99.90
16392;DHT22;8305;-33.882;151.134;2023-09-07T05:43:59;23.10;99.90
16392;DHT22;8305;-33.882;151.134;2023-09-07T05:46:30;23.00;99.90
16392;DHT22;8305;-33.882;151.134;2023-09-07T05:49:01;23.00;99.90
16392;DHT22;8305;-33.882;151.134;2023-09-07T05:51:32;23.00;99.90
16392;DHT22;8305;-33.882;151.134;2023-09-07T05:54:03;23.00;99.90
16392;DHT22;8305;-33.882;151.134;2023-09-07T05:56:36;22.90;99.90
16392;DHT22;8305;-33.882;151.134;2023-09-07T05:59:07;22.80;99.90
16392;DHT22;8305;-33.882;151.134;2023-09-07T06:01:37;22.90;99.90
16392;DHT22;8305;-33.882;151.134;2023-09-07T06:04:09;22.90;99.90
16392;DHT22;8305;-33.882;151.134;2023-09-07T06:06:39;22.90;99.90
16392;DHT22;8305;-33.882;151.134;2023-09-07T06:09:10;22.80;99.90
16392;DHT22;8305;-33.882;151.134;2023-09-07T06:11:43;22.80;99.90
16392;DHT22;8305;-33.882;151.134;2023-09-07T06:14:13;22.90;99.90
16392;DHT22;8305;-33.882;151.134;2023-09-07T06:16:44;22.80;99.90
16392;DHT22;8305;-33.882;151.134;2023-09-07T06:19:15;22.80;99.90
16392;DHT22;8305;-33.882;151.134;2023-09-07T06:21:46;22.80;99.90
16392;DHT22;8305;-33.882;151.134;2023-09-07T06:24:16;22.80;99.90
16392;DHT22;8305;-33.882;151.134;2023-09-07T06:26:49;22.80;99.90
16392;DHT22;8305;-33.882;151.134;2023-09-07T06:29:20;22.80;99.90
16392;DHT22;8305;-33.882;151.134;2023-09-07T06:31:51;22.80;99.90
16392;DHT22;8305;-33.882;151.134;2023-09-07T06:34:22;22.70;99.90
16392;DHT22;8305;-33.882;151.134;2023-09-07T06:36:52;22.70;99.90
16392;DHT22;8305;-33.882;151.134;2023-09-07T06:39:23;22.60;99.90
16392;DHT22;8305;-33.882;151.134;2023-09-07T06:41:56;22.60;99.90
16392;DHT22;8305;-33.882;151.134;2023-09-07T06:44:26;22.50;99.90
16392;DHT22;8305;-33.882;151.134;2023-09-07T06:46:57;22.50;99.90
16392;DHT22;8305;-33.882;151.134;2023-09-07T06:49:28;22.40;99.90
16392;DHT22;8305;-33.882;151.134;2023-09-07T06:51:59;22.30;99.90
16392;DHT22;8305;-33.882;151.134;2023-09-07T06:54:30;22.20;99.90
16392;DHT22;8305;-33.882;151.134;2023-09-07T06:57:03;22.20;99.90
16392;DHT22;8305;-33.882;151.134;2023-09-07T06:59:36;22.10;99.90
16392;DHT22;8305;-33.882;151.134;2023-09-07T07:02:07;22.10;99.90
16392;DHT22;8305;-33.882;151.134;2023-09-07T07:04:38;22.00;99.90
16392;DHT22;8305;-33.882;151.134;2023-09-07T07:07:08;22.00;99.90
16392;DHT22;8305;-33.882;151.134;2023-09-07T07:09:39;22.00;99.90
16392;DHT22;8305;-33.882;151.134;2023-09-07T07:12:12;21.90;99.90
16392;DHT22;8305;-33.882;151.134;2023-09-07T07:14:43;21.90;99.90
16392;DHT22;8305;-33.882;151.134;2023-09-07T07:17:14;21.80;99.90
16392;DHT22;8305;-33.882;151.134;2023-09-07T07:19:44;21.80;99.90
16392;DHT22;8305;-33.882;151.134;2023-09-07T07:22:15;21.70;99.90
16392;DHT22;8305;-33.882;151.134;2023-09-07T07:24:46;21.70;99.90
16392;DHT22;8305;-33.882;151.134;2023-09-07T07:27:19;21.60;99.90
16392;DHT22;8305;-33.882;151.134;2023-09-07T07:29:53;21.60;99.90
16392;DHT22;8305;-33.882;151.134;2023-09-07T07:32:24;21.50;99.90
16392;DHT22;8305;-33.882;151.134;2023-09-07T07:34:55;21.50;99.90
16392;DHT22;8305;-33.882;151.134;2023-09-07T07:37:25;21.40;99.90
16392;DHT22;8305;-33.882;151.134;2023-09-07T07:39:56;21.40;99.90
16392;DHT22;8305;-33.882;151.134;2023-09-07T07:42:29;21.30;99.90
16392;DHT22;8305;-33.882;151.134;2023-09-07T07:45:00;21.30;99.90
16392;DHT22;8305;-33.882;151.134;2023-09-07T07:47:30;21.20;99.90
16392;DHT22;8305;-33.882;151.134;2023-09-07T07:50:01;21.20;99.90
16392;DHT22;8305;-33.882;151.134;2023-09-07T07:52:32;21.10;99.90
16392;DHT22;8305;-33.882;151.134;2023-09-07T07:55:03;21.10;99.90
16392;DHT22;8305;-33.882;151.134;2023-09-07T07:57:36;21.00;99.90
16392;DHT22;8305;-33.882;151.134;2023-09-07T08:00:07;21.00;99.90
16392;DHT22;8305;-33.882;151.134;2023-09-07T08:02:39;21.00;99.90
16392;DHT22;8305;-33.882;151.134;2023-09-07T08:05:09;21.00;99.90
16392;DHT22;8305;-33.882;151.134;2023-09-07T08:07:40;20.90;99.90
16392;DHT22;8305;-33.882;151.134;2023-09-07T08:10:11;20.90;99.90
16392;DHT22;8305;-33.882;151.134;2023-09-07T08:12:44;20.90;99.90
16392;DHT22;8305;-33.882;151.134;2023-09-07T08:15:15;20.90;99.90
16392;DHT22;8305;-33.882;151.134;2023-09-07T08:17:48;20.80;99.90
16392;DHT22;8305;-33.882;151.134;2023-09-07T08:20:18;20.80;99.90
16392;DHT22;8305;-33.882;151.134;2023-09-07T08:22:49;20.80;99.90
16392;DHT22;8305;-33.882;151.134;2023-09-07T08:25:20;20.70;99.90
16392;DHT22;8305;-33.882;151.134;2023-09-07T08:27:53;20.70;99.90
16392;DHT22;8305;-33.882;151.134;2023-09-07T08:30:26;20.70;99.90
16392;DHT22;8305;-33.882;151.134;2023-09-07T08:32:57;20.60;99.90
16392;DHT22;8305;-33.882;151.134;2023-09-07T08:35:30;20.60;99.90
16392;DHT22;8305;-33.882;151.134;2023-09-07T08:38:03;20.60;99.90
16392;DHT22;8305;-33.882;151.134;2023-09-07T08:40:36;20.60;99.90
16392;DHT22;8305;-33.882;151.134;2023-09-07T08:43:10;20.60;99.90
16392;DHT22;8305;-33.882;151.134;2023-09-07T08:45:48;20.70;99.90
16392;DHT22;8305;-33.882;151.134;2023-09-07T08:48:21;20.70;99.90
16392;DHT22;8305;-33.882;151.134;2023-09-07T08:50:53;20.70;99.90
16392;DHT22;8305;-33.882;151.134;2023-09-07T08:53:24;20.70;99.90
16392;DHT22;8305;-33.882;151.134;2023-09-07T08:55:55;20.80;99.90
16392;DHT22;8305;-33.882;151.134;2023-09-07T08:58:28;20.80;99.90
16392;DHT22;8305;-33.882;151.134;2023-09-07T09:00:59;20.90;99.90
16392;DHT22;8305;-33.882;151.134;2023-09-07T09:03:30;20.90;99.90
16392;DHT22;8305;-33.882;151.134;2023-09-07T09:06:02;20.90;99.90
16392;DHT22;8305;-33.882;151.134;2023-09-07T09:08:43;21.00;99.90
16392;DHT22;8305;-33.882;151.134;2023-09-07T09:11:15;21.00;99.90
16392;DHT22;8305;-33.882;151.134;2023-09-07T09:13:48;21.00;99.90
16392;DHT22;8305;-33.882;151.134;2023-09-07T09:16:20;21.00;99.90
16392;DHT22;8305;-33.882;151.134;2023-09-07T09:18:51;21.00;99.90
16392;DHT22;8305;-33.882;151.134;2023-09-07T09:21:22;21.00;99.90
16392;DHT22;8305;-33.882;151.134;2023-09-07T09:23:55;21.00;99.90
16392;DHT22;8305;-33.882;151.134;2023-09-07T09:26:26;21.00;99.90
16392;DHT22;8305;-33.882;151.134;2023-09-07T09:29:01;21.00;99.90
16392;DHT22;8305;-33.882;151.134;2023-09-07T09:31:32;21.00;99.90
16392;DHT22;8305;-33.882;151.134;2023-09-07T09:34:12;21.10;99.90
16392;DHT22;8305;-33.882;151.134;2023-09-07T09:36:43;21.10;99.90
16392;DHT22;8305;-33.882;151.134;2023-09-07T09:39:23;21.10;99.90
16392;DHT22;8305;-33.882;151.134;2023-09-07T09:41:54;21.20;99.90
16392;DHT22;8305;-33.882;151.134;2023-09-07T09:44:29;21.20;99.90
16392;DHT22;8305;-33.882;151.134;2023-09-07T09:47:00;21.10;99.90
16392;DHT22;8305;-33.882;151.134;2023-09-07T09:49:32;21.10;99.90
16392;DHT22;8305;-33.882;151.134;2023-09-07T09:52:03;21.10;99.90
16392;DHT22;8305;-33.882;151.134;2023-09-07T09:54:36;21.10;99.90
16392;DHT22;8305;-33.882;151.134;2023-09-07T09:57:10;21.10;99.90
16392;DHT22;8305;-33.882;151.134;2023-09-07T09:59:45;21.10;99.90
16392;DHT22;8305;-33.882;151.134;2023-09-07T10:02:17;21.00;99.90
16392;DHT22;8305;-33.882;151.134;2023-09-07T10:04:48;21.00;99.90
16392;DHT22;8305;-33.882;151.134;2023-09-07T10:07:28;21.10;99.90
16392;DHT22;8305;-33.882;151.134;2023-09-07T10:09:59;21.20;99.90
16392;DHT22;8305;-33.882;151.134;2023-09-07T10:12:39;21.20;99.90
16392;DHT22;8305;-33.882;151.134;2023-09-07T10:15:24;21.30;99.90
16392;DHT22;8305;-33.882;151.134;2023-09-07T10:18:09;21.40;99.90
16392;DHT22;8305;-33.882;151.134;2023-09-07T10:20:54;21.40;99.90
16392;DHT22;8305;-33.882;151.134;2023-09-07T10:23:37;21.50;99.90
16392;DHT22;8305;-33.882;151.134;2023-09-07T10:26:12;21.50;99.90
16392;DHT22;8305;-33.882;151.134;2023-09-07T10:28:44;21.60;99.90
16392;DHT22;8305;-33.882;151.134;2023-09-07T10:31:18;21.60;99.90
16392;DHT22;8305;-33.882;151.134;2023-09-07T10:33:49;21.60;99.90
16392;DHT22;8305;-33.882;151.134;2023-09-07T10:36:24;21.70;99.90
16392;DHT22;8305;-33.882;151.134;2023-09-07T10:38:56;21.70;99.90
16392;DHT22;8305;-33.882;151.134;2023-09-07T10:41:27;21.70;99.90
16392;DHT22;8305;-33.882;151.134;2023-09-07T10:43:58;21.80;99.90
16392;DHT22;8305;-33.882;151.134;2023-09-07T10:46:37;21.70;99.90
16392;DHT22;8305;-33.882;151.134;2023-09-07T10:49:08;21.70;99.90
16392;DHT22;8305;-33.882;151.134;2023-09-07T10:51:42;21.80;99.90
16392;DHT22;8305;-33.882;151.134;2023-09-07T10:54:16;21.80;99.90
16392;DHT22;8305;-33.882;151.134;2023-09-07T10:56:47;21.80;99.90
16392;DHT22;8305;-33.882;151.134;2023-09-07T10:59:18;21.80;99.90
16392;DHT22;8305;-33.882;151.134;2023-09-07T11:01:50;21.90;99.90
16392;DHT22;8305;-33.882;151.134;2023-09-07T11:04:21;21.90;99.90
16392;DHT22;8305;-33.882;151.134;2023-09-07T11:06:52;21.90;99.90
16392;DHT22;8305;-33.882;151.134;2023-09-07T11:09:23;21.90;99.90
16392;DHT22;8305;-33.882;151.134;2023-09-07T11:11:54;22.00;99.90
16392;DHT22;8305;-33.882;151.134;2023-09-07T11:14:30;22.00;99.90
16392;DHT22;8305;-33.882;151.134;2023-09-07T11:17:03;22.00;99.90
16392;DHT22;8305;-33.882;151.134;2023-09-07T11:19:34;22.10;99.90
16392;DHT22;8305;-33.882;151.134;2023-09-07T11:22:10;22.10;99.90
16392;DHT22;8305;-33.882;151.134;2023-09-07T11:24:41;22.20;99.90
16392;DHT22;8305;-33.882;151.134;2023-09-07T11:27:18;22.20;99.90
16392;DHT22;8305;-33.882;151.134;2023-09-07T11:29:53;22.30;99.90
16392;DHT22;8305;-33.882;151.134;2023-09-07T11:32:35;22.40;99.90
16392;DHT22;8305;-33.882;151.134;2023-09-07T11:35:10;22.50;99.90
16392;DHT22;8305;-33.882;151.134;2023-09-07T11:37:41;22.60;99.90
16392;DHT22;8305;-33.882;151.134;2023-09-07T11:40:12;22.60;99.90
16392;DHT22;8305;-33.882;151.134;2023-09-07T11:42:43;22.70;99.90
16392;DHT22;8305;-33.882;151.134;2023-09-07T11:45:14;22.80;99.90
16392;DHT22;8305;-33.882;151.134;2023-09-07T11:47:48;22.90;99.90
16392;DHT22;8305;-33.882;151.134;2023-09-07T11:50:19;22.90;99.90
16392;DHT22;8305;-33.882;151.134;2023-09-07T11:52:50;23.00;99.90
16392;DHT22;8305;-33.882;151.134;2023-09-07T11:55:21;23.10;99.90
16392;DHT22;8305;-33.882;151.134;2023-09-07T11:57:52;23.20;99.90
16392;DHT22;8305;-33.882;151.134;2023-09-07T12:00:23;23.20;99.90
16392;DHT22;8305;-33.882;151.134;2023-09-07T12:02:56;23.20;99.90
16392;DHT22;8305;-33.882;151.134;2023-09-07T12:05:26;23.30;99.90
16392;DHT22;8305;-33.882;151.134;2023-09-07T12:07:57;23.30;99.90
16392;DHT22;8305;-33.882;151.134;2023-09-07T12:10:28;23.30;99.90
16392;DHT22;8305;-33.882;151.134;2023-09-07T12:12:59;23.40;99.90
16392;DHT22;8305;-33.882;151.134;2023-09-07T12:15:29;23.50;99.90
16392;DHT22;8305;-33.882;151.134;2023-09-07T12:18:02;23.50;99.90
16392;DHT22;8305;-33.882;151.134;2023-09-07T12:20:33;23.70;99.90
16392;DHT22;8305;-33.882;151.134;2023-09-07T12:23:04;23.80;99.90
16392;DHT22;8305;-33.882;151.134;2023-09-07T12:25:35;23.90;99.90
16392;DHT22;8305;-33.882;151.134;2023-09-07T12:28:06;24.00;99.90
16392;DHT22;8305;-33.882;151.134;2023-09-07T12:30:37;24.30;99.90
16392;DHT22;8305;-33.882;151.134;2023-09-07T12:33:09;24.40;99.90
16392;DHT22;8305;-33.882;151.134;2023-09-07T12:35:40;24.20;99.90
16392;DHT22;8305;-33.882;151.134;2023-09-07T12:38:11;24.00;99.90
16392;DHT22;8305;-33.882;151.134;2023-09-07T12:40:45;23.70;99.90
16392;DHT22;8305;-33.882;151.134;2023-09-07T12:43:16;23.50;99.90
16392;DHT22;8305;-33.882;151.134;2023-09-07T12:45:47;23.30;99.90
16392;DHT22;8305;-33.882;151.134;2023-09-07T12:48:19;23.10;99.90
16392;DHT22;8305;-33.882;151.134;2023-09-07T12:50:50;23.00;99.90
16392;DHT22;8305;-33.882;151.134;2023-09-07T12:53:21;22.90;99.90
16392;DHT22;8305;-33.882;151.134;2023-09-07T12:55:53;22.80;99.90
16392;DHT22;8305;-33.882;151.134;2023-09-07T12:58:24;22.60;99.90
16392;DHT22;8305;-33.882;151.134;2023-09-07T13:00:55;22.50;99.90
16392;DHT22;8305;-33.882;151.134;2023-09-07T13:03:27;22.50;99.90
16392;DHT22;8305;-33.882;151.134;2023-09-07T13:05:58;22.30;99.90
16392;DHT22;8305;-33.882;151.134;2023-09-07T13:08:29;22.20;99.90
16392;DHT22;8305;-33.882;151.134;2023-09-07T13:11:00;22.20;99.90
16392;DHT22;8305;-33.882;151.134;2023-09-07T13:13:32;22.10;99.90
16392;DHT22;8305;-33.882;151.134;2023-09-07T13:16:06;22.00;99.90
16392;DHT22;8305;-33.882;151.134;2023-09-07T13:18:39;21.90;99.90
16392;DHT22;8305;-33.882;151.134;2023-09-07T13:21:10;21.80;99.90
16392;DHT22;8305;-33.882;151.134;2023-09-07T13:23:40;21.80;99.90
16392;DHT22;8305;-33.882;151.134;2023-09-07T13:26:11;21.70;99.90
16392;DHT22;8305;-33.882;151.134;2023-09-07T13:28:42;21.70;99.90
16392;DHT22;8305;-33.882;151.134;2023-09-07T13:31:13;21.60;99.90
16392;DHT22;8305;-33.882;151.134;2023-09-07T13:33:45;21.50;99.90
16392;DHT22;8305;-33.882;151.134;2023-09-07T13:36:16;21.50;99.90
16392;DHT22;8305;-33.882;151.134;2023-09-07T13:38:47;21.50;99.90
16392;DHT22;8305;-33.882;151.134;2023-09-07T13:41:17;21.40;99.90
16392;DHT22;8305;-33.882;151.134;2023-09-07T13:43:48;21.50;99.90
16392;DHT22;8305;-33.882;151.134;2023-09-07T13:46:19;21.50;99.90
16392;DHT22;8305;-33.882;151.134;2023-09-07T13:48:53;21.50;99.90
16392;DHT22;8305;-33.882;151.134;2023-09-07T13:51:23;21.50;99.90
16392;DHT22;8305;-33.882;151.134;2023-09-07T13:53:54;21.50;99.90
16392;DHT22;8305;-33.882;151.134;2023-09-07T13:56:25;21.50;99.90
16392;DHT22;8305;-33.882;151.134;2023-09-07T13:58:56;21.50;99.90
16392;DHT22;8305;-33.882;151.134;2023-09-07T14:01:26;21.50;99.90
16392;DHT22;8305;-33.882;151.134;2023-09-07T14:03:59;21.50;99.90
16392;DHT22;8305;-33.882;151.134;2023-09-07T14:06:30;21.50;99.90
16392;DHT22;8305;-33.882;151.134;2023-09-07T14:09:01;21.50;99.90
16392;DHT22;8305;-33.882;151.134;2023-09-07T14:11:34;21.50;99.90
16392;DHT22;8305;-33.882;151.134;2023-09-07T14:14:05;21.50;99.90
16392;DHT22;8305;-33.882;151.134;2023-09-07T14:16:36;21.60;99.90
16392;DHT22;8305;-33.882;151.134;2023-09-07T14:19:08;21.60;99.90
16392;DHT22;8305;-33.882;151.134;2023-09-07T14:21:39;21.60;99.90
16392;DHT22;8305;-33.882;151.134;2023-09-07T14:24:10;21.60;99.90
16392;DHT22;8305;-33.882;151.134;2023-09-07T14:26:41;21.60;99.90
16392;DHT22;8305;-33.882;151.134;2023-09-07T14:29:11;21.60;99.90
16392;DHT22;8305;-33.882;151.134;2023-09-07T14:31:42;21.60;99.90
16392;DHT22;8305;-33.882;151.134;2023-09-07T14:34:15;21.70;99.90
16392;DHT22;8305;-33.882;151.134;2023-09-07T14:36:46;21.70;99.90
16392;DHT22;8305;-33.882;151.134;2023-09-07T14:39:17;21.80;99.90
16392;DHT22;8305;-33.882;151.134;2023-09-07T14:41:51;21.80;99.90
16392;DHT22;8305;-33.882;151.134;2023-09-07T14:44:22;21.90;99.90
16392;DHT22;8305;-33.882;151.134;2023-09-07T14:46:53;21.90;99.90
16392;DHT22;8305;-33.882;151.134;2023-09-07T14:49:26;21.80;99.90
16392;DHT22;8305;-33.882;151.134;2023-09-07T14:51:56;21.80;99.90
16392;DHT22;8305;-33.882;151.134;2023-09-07T14:54:27;21.70;99.90
16392;DHT22;8305;-33.882;151.134;2023-09-07T14:56:58;21.70;99.90
16392;DHT22;8305;-33.882;151.134;2023-09-07T14:59:29;21.70;99.90
16392;DHT22;8305;-33.882;151.134;2023-09-07T15:01:59;21.70;99.90
16392;DHT22;8305;-33.882;151.134;2023-09-07T15:04:32;21.60;99.90
16392;DHT22;8305;-33.882;151.134;2023-09-07T15:07:03;21.80;99.90
16392;DHT22;8305;-33.882;151.134;2023-09-07T15:09:34;21.80;99.90
16392;DHT22;8305;-33.882;151.134;2023-09-07T15:12:05;21.80;99.90
16392;DHT22;8305;-33.882;151.134;2023-09-07T15:14:37;21.90;99.90
16392;DHT22;8305;-33.882;151.134;2023-09-07T15:17:08;21.90;99.90
16392;DHT22;8305;-33.882;151.134;2023-09-07T15:19:44;22.00;99.90
16392;DHT22;8305;-33.882;151.134;2023-09-07T15:22:19;22.10;99.90
16392;DHT22;8305;-33.882;151.134;2023-09-07T15:24:52;22.10;99.90
16392;DHT22;8305;-33.882;151.134;2023-09-07T15:27:27;22.10;99.90
16392;DHT22;8305;-33.882;151.134;2023-09-07T15:29:58;22.20;99.90